createdAt,value
2023-02-06T00:00:18.311Z,5.87
2023-02-06T00:03:06.160Z,6.40
2023-02-06T00:05:58.143Z,6.13
2023-02-06T00:08:46.052Z,6.10
2023-02-06T00:11:33.656Z,6.70
2023-02-06T00:14:21.070Z,5.83
2023-02-06T00:17:08.517Z,5.50
2023-02-06T00:19:56.502Z,5.70
2023-02-06T00:22:45.008Z,6.40
2023-02-06T00:25:32.436Z,5.80
2023-02-06T00:28:20.282Z,6.43
2023-02-06T00:31:08.484Z,5.93
2023-02-06T00:33:56.494Z,5.23
2023-02-06T00:36:44.004Z,6.20
2023-02-06T00:39:31.731Z,6.17
2023-02-06T00:42:19.122Z,6.00
2023-02-06T00:45:06.941Z,6.17
2023-02-06T00:47:54.280Z,6.00
2023-02-06T00:50:42.540Z,5.80
2023-02-06T00:53:30.042Z,6.00
2023-02-06T00:56:18.015Z,6.43
2023-02-06T00:59:05.598Z,5.93
2023-02-06T01:01:53.349Z,5.97
2023-02-06T01:04:40.901Z,5.63
2023-02-06T01:07:28.825Z,5.57
2023-02-06T01:10:17.056Z,5.40
2023-02-06T01:13:04.475Z,5.93
2023-02-06T01:15:52.466Z,6.80
2023-02-06T01:18:40.195Z,5.50
2023-02-06T01:21:28.056Z,5.90
2023-02-06T01:24:15.796Z,6.23
2023-02-06T01:27:03.624Z,5.57
2023-02-06T01:29:51.520Z,5.43
2023-02-06T01:32:39.657Z,6.10
2023-02-06T01:35:29.236Z,5.33
2023-02-06T01:38:16.754Z,6.67
2023-02-06T01:41:05.255Z,5.87
2023-02-06T01:44:13.779Z,5.57
2023-02-06T01:47:01.892Z,6.40
2023-02-06T01:49:51.317Z,6.23
2023-02-06T01:52:39.525Z,6.73
2023-02-06T01:55:27.366Z,6.63
2023-02-06T01:58:17.337Z,5.83
2023-02-06T02:01:05.929Z,6.67
2023-02-06T02:03:55.596Z,6.07
2023-02-06T02:06:43.616Z,6.00
2023-02-06T02:09:31.874Z,6.47
2023-02-06T02:12:19.943Z,6.67
2023-02-06T02:15:07.375Z,6.77
2023-02-06T02:18:02.976Z,6.00
2023-02-06T02:21:05.607Z,6.60
2023-02-06T02:23:59.360Z,6.17
2023-02-06T02:27:05.620Z,6.00
2023-02-06T02:30:12.563Z,6.00
2023-02-06T02:33:18.426Z,5.70
2023-02-06T02:36:23.595Z,6.17
2023-02-06T02:39:13.633Z,7.10
2023-02-06T02:42:20.040Z,6.07
2023-02-06T02:45:11.341Z,6.97
2023-02-06T02:48:06.347Z,5.83
2023-02-06T02:50:55.065Z,7.20
2023-02-06T02:53:43.193Z,6.27
2023-02-06T02:56:31.200Z,5.80
2023-02-06T02:59:38.236Z,7.60
2023-02-06T03:02:27.663Z,7.50
2023-02-06T03:05:20.134Z,7.40
2023-02-06T03:08:19.195Z,6.60
2023-02-06T03:11:18.261Z,6.63
2023-02-06T03:14:34.817Z,7.77
2023-02-06T03:17:44.211Z,7.40
2023-02-06T03:20:43.815Z,7.50
2023-02-06T03:23:39.132Z,7.40
2023-02-06T03:26:29.836Z,7.70
2023-02-06T03:29:18.717Z,6.87
2023-02-06T03:32:14.877Z,8.00
2023-02-06T03:35:08.081Z,7.20
2023-02-06T03:37:56.635Z,7.87
2023-02-06T03:40:45.152Z,7.43
2023-02-06T03:43:33.224Z,7.83
2023-02-06T03:46:20.970Z,7.53
2023-02-06T03:49:09.809Z,7.13
2023-02-06T03:52:02.677Z,8.30
2023-02-06T03:54:56.063Z,6.77
2023-02-06T03:57:45.338Z,7.60
2023-02-06T04:00:33.529Z,8.00
2023-02-06T04:03:21.503Z,7.93
2023-02-06T04:06:09.041Z,7.80
2023-02-06T04:08:56.502Z,6.97
2023-02-06T04:11:45.827Z,8.23
2023-02-06T04:14:33.243Z,7.77
2023-02-06T04:17:40.724Z,7.30
2023-02-06T04:20:28.426Z,7.80
2023-02-06T04:23:16.320Z,8.20
2023-02-06T04:26:03.652Z,7.27
2023-02-06T04:28:51.463Z,7.00
2023-02-06T04:31:38.781Z,6.13
2023-02-06T04:34:26.249Z,6.87
2023-02-06T04:37:13.866Z,6.80
2023-02-06T04:40:01.661Z,6.83
2023-02-06T04:42:49.404Z,7.37
2023-02-06T04:45:37.652Z,7.10
2023-02-06T04:48:25.321Z,7.00
2023-02-06T04:51:13.271Z,7.43
2023-02-06T04:54:01.043Z,7.27
2023-02-06T04:56:49.061Z,7.40
2023-02-06T04:59:36.937Z,7.50
2023-02-06T05:02:24.242Z,7.50
2023-02-06T05:05:11.739Z,7.07
2023-02-06T05:07:59.520Z,7.60
2023-02-06T05:10:46.852Z,7.73
2023-02-06T05:13:35.035Z,8.77
2023-02-06T05:16:22.521Z,7.10
2023-02-06T05:19:09.963Z,6.83
2023-02-06T05:21:57.172Z,7.43
2023-02-06T05:24:44.970Z,8.00
2023-02-06T05:27:32.283Z,8.00
2023-02-06T05:30:20.215Z,9.17
2023-02-06T05:33:07.460Z,8.17
2023-02-06T05:35:55.220Z,8.40
2023-02-06T05:38:43.000Z,9.00
2023-02-06T05:41:30.762Z,8.37
2023-02-06T05:44:18.155Z,8.83
2023-02-06T05:47:05.938Z,8.70
2023-02-06T05:49:53.808Z,10.57
2023-02-06T05:52:41.325Z,8.73
2023-02-06T05:55:29.249Z,9.93
2023-02-06T05:58:16.943Z,9.73
2023-02-06T06:01:04.851Z,9.97
2023-02-06T06:03:52.477Z,10.00
2023-02-06T06:06:40.460Z,9.30
2023-02-06T06:09:28.279Z,9.93
2023-02-06T06:12:15.696Z,9.40
2023-02-06T06:15:03.045Z,9.80
2023-02-06T06:17:50.877Z,8.43
2023-02-06T06:20:38.378Z,8.73
2023-02-06T06:23:26.144Z,9.80
2023-02-06T06:26:13.505Z,9.73
2023-02-06T06:29:01.437Z,10.77
2023-02-06T06:31:49.480Z,9.43
2023-02-06T06:34:37.282Z,9.87
2023-02-06T06:37:25.227Z,10.37
2023-02-06T06:40:12.928Z,10.80
2023-02-06T06:43:00.750Z,9.23
2023-02-06T06:45:48.135Z,9.93
2023-02-06T06:48:37.538Z,9.17
2023-02-06T06:51:26.818Z,9.20
2023-02-06T06:54:15.911Z,9.13
2023-02-06T06:57:03.210Z,10.30
2023-02-06T06:59:51.175Z,9.60
2023-02-06T07:02:38.672Z,8.47
2023-02-06T07:05:26.204Z,10.27
2023-02-06T07:08:14.430Z,9.93
2023-02-06T07:11:09.689Z,14.73
2023-02-06T07:14:03.966Z,17.37
2023-02-06T07:17:13.926Z,19.23
2023-02-06T07:20:01.282Z,17.63
2023-02-06T07:22:50.279Z,12.57
2023-02-06T07:25:37.994Z,11.10
2023-02-06T07:28:25.962Z,10.23
2023-02-06T07:31:13.372Z,10.40
2023-02-06T07:34:02.259Z,10.47
2023-02-06T07:36:50.252Z,11.83
2023-02-06T07:39:38.081Z,11.00
2023-02-06T07:42:25.623Z,8.77
2023-02-06T07:45:13.058Z,9.87
2023-02-06T07:48:01.066Z,10.10
2023-02-06T07:50:48.478Z,10.90
2023-02-06T07:53:36.658Z,10.60
2023-02-06T07:56:25.611Z,13.67
2023-02-06T07:59:13.341Z,14.37
2023-02-06T08:02:01.055Z,10.90
2023-02-06T08:04:48.993Z,15.77
2023-02-06T08:07:36.405Z,9.87
2023-02-06T08:10:24.344Z,13.53
2023-02-06T08:13:12.288Z,10.93
2023-02-06T08:15:59.726Z,9.13
2023-02-06T08:18:48.369Z,9.07
2023-02-06T08:21:35.842Z,9.47
2023-02-06T08:24:23.306Z,9.03
2023-02-06T08:27:10.729Z,8.90
2023-02-06T08:29:59.873Z,8.93
2023-02-06T08:32:47.304Z,8.97
2023-02-06T08:35:35.518Z,8.83
2023-02-06T08:38:22.925Z,7.57
2023-02-06T08:41:22.524Z,7.17
2023-02-06T08:44:12.319Z,6.53
2023-02-06T08:47:09.592Z,6.57
2023-02-06T08:49:58.150Z,6.30
2023-02-06T08:52:46.082Z,6.00
2023-02-06T08:55:33.478Z,5.43
2023-02-06T08:58:21.229Z,5.80
2023-02-06T09:01:08.554Z,5.87
2023-02-06T09:03:56.937Z,6.10
2023-02-06T09:06:45.136Z,5.67
2023-02-06T09:09:33.298Z,5.87
2023-02-06T09:12:22.126Z,5.80
2023-02-06T09:15:10.324Z,6.13
2023-02-06T09:17:58.040Z,6.17
2023-02-06T09:20:48.525Z,5.47
2023-02-06T09:23:36.508Z,4.50
2023-02-06T09:26:25.910Z,4.90
2023-02-06T09:29:13.471Z,4.80
2023-02-06T09:32:01.428Z,4.50
2023-02-06T09:34:49.372Z,4.93
2023-02-06T09:37:36.836Z,4.80
2023-02-06T09:40:27.516Z,4.20
2023-02-06T09:43:15.004Z,4.80
2023-02-06T09:46:04.584Z,4.40
2023-02-06T09:48:52.635Z,5.10
2023-02-06T09:51:53.863Z,4.17
2023-02-06T09:54:54.899Z,4.50
2023-02-06T09:57:46.652Z,4.03
2023-02-06T10:01:00.312Z,4.27
2023-02-06T10:15:07.995Z,4.20
2023-02-06T10:18:14.632Z,4.00
2023-02-06T10:21:20.754Z,4.07
2023-02-06T10:24:26.751Z,3.87
2023-02-06T10:27:15.550Z,4.00
2023-02-06T10:30:03.204Z,3.93
2023-02-06T10:33:23.912Z,4.33
2023-02-06T10:36:15.157Z,4.13
2023-02-06T10:39:21.469Z,4.20
2023-02-06T10:42:16.687Z,4.50
2023-02-06T10:45:20.436Z,4.40
2023-02-06T10:48:22.610Z,4.33
2023-02-06T10:51:22.748Z,4.37
2023-02-06T10:54:17.544Z,3.80
2023-02-06T10:57:06.515Z,4.00
2023-02-06T10:59:56.386Z,3.87
2023-02-06T11:03:06.640Z,4.47
2023-02-06T11:05:54.722Z,4.07
2023-02-06T11:08:46.331Z,4.07
2023-02-06T11:11:38.246Z,4.30
2023-02-06T11:14:28.656Z,4.83
2023-02-06T11:17:17.851Z,4.30
2023-02-06T11:20:23.464Z,5.20
2023-02-06T11:23:16.366Z,4.80
2023-02-06T11:26:06.079Z,4.40
2023-02-06T11:28:53.970Z,4.47
2023-02-06T11:31:56.973Z,4.57
2023-02-06T11:35:01.364Z,4.50
2023-02-06T11:37:52.870Z,4.80
2023-02-06T11:40:40.348Z,4.50
2023-02-06T11:43:32.632Z,4.60
2023-02-06T11:46:24.080Z,4.10
2023-02-06T11:49:30.388Z,4.37
2023-02-06T11:52:32.211Z,4.43
2023-02-06T11:55:27.713Z,4.40
2023-02-06T11:58:15.178Z,4.20
2023-02-06T12:01:04.983Z,4.60
2023-02-06T12:03:53.827Z,4.73
2023-02-06T12:06:42.252Z,5.23
2023-02-06T12:09:30.155Z,5.03
2023-02-06T12:12:26.331Z,7.93
2023-02-06T12:15:39.959Z,4.77
2023-02-06T12:18:29.831Z,4.63
2023-02-06T12:21:24.862Z,4.10
2023-02-06T12:24:25.223Z,4.80
2023-02-06T12:27:15.577Z,4.90
2023-02-06T12:30:23.786Z,4.93
2023-02-06T12:33:20.151Z,4.80
2023-02-06T12:36:12.338Z,5.10
2023-02-06T12:39:05.642Z,4.57
2023-02-06T12:42:01.956Z,4.10
2023-02-06T12:44:49.368Z,4.60
2023-02-06T12:47:40.768Z,5.33
2023-02-06T12:50:31.232Z,4.70
2023-02-06T12:53:30.561Z,4.80
2023-02-06T12:56:28.000Z,5.17
2023-02-06T12:59:15.396Z,4.90
2023-02-06T13:02:17.780Z,4.60
2023-02-06T13:05:12.929Z,4.57
2023-02-06T13:08:05.981Z,4.80
2023-02-06T13:11:01.614Z,4.63
2023-02-06T13:13:53.165Z,5.43
2023-02-06T13:16:45.347Z,4.70
2023-02-06T13:19:51.873Z,6.43
2023-02-06T13:22:41.748Z,5.67
2023-02-06T13:25:32.205Z,5.83
2023-02-06T13:28:23.331Z,6.20
2023-02-06T13:31:24.805Z,7.70
2023-02-06T13:34:15.681Z,5.60
2023-02-06T13:37:21.989Z,6.60
2023-02-06T13:40:25.013Z,5.97
2023-02-06T13:43:19.421Z,5.60
2023-02-06T13:46:10.336Z,5.20
2023-02-06T13:49:25.417Z,5.77
2023-02-06T13:52:23.496Z,4.90
2023-02-06T13:55:22.147Z,5.00
2023-02-06T13:58:26.213Z,5.77
2023-02-06T14:01:15.350Z,5.97
2023-02-06T14:04:07.486Z,4.87
2023-02-06T14:07:11.994Z,5.80
2023-02-06T14:10:23.643Z,5.73
2023-02-06T14:13:17.617Z,5.33
2023-02-06T14:16:05.020Z,5.00
2023-02-06T14:19:11.689Z,5.67
2023-02-06T14:22:16.809Z,4.47
2023-02-06T14:25:04.550Z,5.17
2023-02-06T14:28:11.248Z,5.23
2023-02-06T14:30:58.702Z,4.97
2023-02-06T14:34:01.213Z,5.37
2023-02-06T14:36:57.804Z,5.40
2023-02-06T14:39:47.960Z,6.30
2023-02-06T14:42:40.288Z,6.97
2023-02-06T14:45:42.102Z,7.10
2023-02-06T14:48:33.200Z,5.67
2023-02-06T14:51:21.109Z,4.90
2023-02-06T14:54:27.879Z,5.17
2023-02-06T14:57:25.185Z,5.10
2023-02-06T15:00:19.738Z,4.70
2023-02-06T15:03:22.762Z,4.57
2023-02-06T15:06:12.271Z,4.70
2023-02-06T15:09:00.399Z,4.83
2023-02-06T15:11:51.594Z,4.17
2023-02-06T15:14:39.151Z,4.43
2023-02-06T15:17:27.047Z,5.50
2023-02-06T15:20:30.010Z,4.50
2023-02-06T15:23:32.739Z,5.57
2023-02-06T15:26:26.904Z,4.80
2023-02-06T15:29:18.580Z,3.97
2023-02-06T15:32:08.286Z,4.87
2023-02-06T15:34:56.334Z,4.43
2023-02-06T15:37:43.801Z,4.53
2023-02-06T15:40:32.363Z,5.23
2023-02-06T15:43:20.904Z,4.50
2023-02-06T15:46:08.577Z,4.33
2023-02-06T15:48:57.905Z,3.80
2023-02-06T15:51:55.785Z,5.10
2023-02-06T15:54:45.549Z,4.93
2023-02-06T15:57:35.474Z,5.37
2023-02-06T16:00:25.264Z,4.83
2023-02-06T16:03:18.201Z,5.47
2023-02-06T16:06:14.036Z,5.73
2023-02-06T16:09:03.030Z,5.60
2023-02-06T16:11:51.774Z,5.83
2023-02-06T16:14:40.574Z,5.73
2023-02-06T16:17:32.800Z,5.73
2023-02-06T16:20:36.954Z,5.43
2023-02-06T16:23:29.650Z,6.10
2023-02-06T16:26:27.807Z,5.53
2023-02-06T16:29:24.010Z,6.10
2023-02-06T16:32:16.977Z,5.60
2023-02-06T16:35:04.277Z,5.70
2023-02-06T16:37:53.858Z,5.50
2023-02-06T16:40:41.875Z,5.57
2023-02-06T16:43:31.038Z,5.33
2023-02-06T16:46:18.554Z,6.10
2023-02-06T16:49:07.285Z,5.80
2023-02-06T16:51:54.784Z,5.23
2023-02-06T16:54:42.723Z,5.33
2023-02-06T16:57:32.000Z,6.07
2023-02-06T17:00:21.746Z,5.57
2023-02-06T17:03:10.340Z,6.00
2023-02-06T17:05:58.269Z,5.93
2023-02-06T17:08:45.770Z,5.10
2023-02-06T17:11:33.933Z,5.83
2023-02-06T17:14:22.028Z,6.17
2023-02-06T17:17:18.036Z,5.03
2023-02-06T17:20:06.005Z,6.07
2023-02-06T17:22:53.472Z,5.93
2023-02-06T17:25:41.853Z,5.93
2023-02-06T17:28:29.758Z,5.90
2023-02-06T17:31:17.446Z,6.60
2023-02-06T17:34:04.991Z,5.97
2023-02-06T17:36:53.114Z,6.37
2023-02-06T17:39:41.041Z,5.80
2023-02-06T17:42:28.516Z,5.80
2023-02-06T17:45:16.610Z,6.47
2023-02-06T17:48:04.827Z,6.40
2023-02-06T17:50:52.882Z,5.57
2023-02-06T17:53:40.308Z,5.87
2023-02-06T17:56:27.999Z,6.80
2023-02-06T17:59:15.892Z,5.70
2023-02-06T18:02:03.828Z,5.53
2023-02-06T18:04:52.894Z,6.23
2023-02-06T18:07:41.158Z,6.70
2023-02-06T18:10:28.717Z,6.07
2023-02-06T18:13:16.390Z,5.57
2023-02-06T18:16:03.956Z,5.10
2023-02-06T18:18:51.885Z,5.93
2023-02-06T18:21:39.819Z,5.60
2023-02-06T18:24:27.212Z,6.03
2023-02-06T18:27:15.394Z,6.30
2023-02-06T18:30:04.363Z,5.07
2023-02-06T18:32:51.783Z,5.13
2023-02-06T18:35:40.211Z,5.57
2023-02-06T18:38:27.611Z,5.80
2023-02-06T18:41:33.884Z,5.60
2023-02-06T18:44:21.083Z,5.50
2023-02-06T18:47:09.630Z,5.73
2023-02-06T18:49:57.413Z,5.27
2023-02-06T18:52:45.305Z,5.87
2023-02-06T18:55:35.400Z,5.70
2023-02-06T18:58:22.819Z,5.27
2023-02-06T19:01:23.724Z,5.73
2023-02-06T19:04:11.751Z,6.20
2023-02-06T19:06:59.174Z,6.67
2023-02-06T19:09:46.634Z,6.77
2023-02-06T19:12:34.628Z,6.83
2023-02-06T19:15:22.591Z,6.73
2023-02-06T19:18:11.183Z,7.13
2023-02-06T19:20:58.590Z,6.97
2023-02-06T19:23:47.396Z,6.80
2023-02-06T19:26:34.863Z,7.03
2023-02-06T19:29:34.872Z,6.47
2023-02-06T19:32:23.203Z,5.50
2023-02-06T19:35:11.896Z,6.43
2023-02-06T19:38:01.950Z,6.07
2023-02-06T19:40:49.386Z,6.77
2023-02-06T19:43:37.693Z,5.93
2023-02-06T19:46:26.639Z,6.40
2023-02-06T19:49:14.533Z,7.07
2023-02-06T19:52:01.863Z,7.03
2023-02-06T19:54:49.300Z,6.37
2023-02-06T19:57:39.648Z,6.20
2023-02-06T20:00:26.989Z,6.00
2023-02-06T20:03:14.884Z,6.73
2023-02-06T20:06:03.097Z,6.77
2023-02-06T20:08:51.063Z,6.33
2023-02-06T20:11:38.679Z,8.37
2023-02-06T20:14:27.092Z,8.40
2023-02-06T20:17:14.353Z,6.70
2023-02-06T20:20:02.287Z,6.57
2023-02-06T20:22:49.538Z,7.20
2023-02-06T20:25:38.025Z,6.67
2023-02-06T20:28:26.495Z,7.37
2023-02-06T20:31:14.194Z,7.07
2023-02-06T20:34:01.703Z,6.57
2023-02-06T20:36:50.074Z,7.60
2023-02-06T20:39:38.355Z,6.73
2023-02-06T20:42:27.304Z,7.10
2023-02-06T20:45:15.197Z,6.67
2023-02-06T20:48:03.131Z,6.53
2023-02-06T20:50:56.901Z,6.83
2023-02-06T20:53:44.412Z,7.70
2023-02-06T20:56:32.039Z,7.23
2023-02-06T20:59:20.106Z,8.77
2023-02-06T21:02:08.099Z,8.17
2023-02-06T21:04:55.515Z,8.00
2023-02-06T21:07:42.983Z,7.87
2023-02-06T21:10:31.393Z,8.40
2023-02-06T21:13:19.883Z,8.27
2023-02-06T21:16:07.670Z,8.23
2023-02-06T21:18:56.126Z,8.00
2023-02-06T21:21:45.973Z,8.13
2023-02-06T21:24:34.181Z,8.37
2023-02-06T21:27:21.698Z,7.40
2023-02-06T21:30:09.860Z,7.00
2023-02-06T21:32:57.385Z,7.83
2023-02-06T21:35:52.009Z,7.63
2023-02-06T21:38:39.909Z,7.63
2023-02-06T21:41:28.381Z,7.93
2023-02-06T21:44:16.309Z,8.77
2023-02-06T21:47:04.830Z,8.87
2023-02-06T21:49:52.750Z,8.70
2023-02-06T21:52:40.214Z,7.47
2023-02-06T21:55:28.468Z,8.27
2023-02-06T21:58:16.586Z,8.07
2023-02-06T22:01:09.174Z,8.03
2023-02-06T22:03:57.277Z,9.83
2023-02-06T22:06:44.752Z,8.83
2023-02-06T22:09:32.694Z,9.33
2023-02-06T22:12:20.135Z,8.27
2023-02-06T22:15:08.785Z,8.83
2023-02-06T22:17:56.248Z,8.30
2023-02-06T22:20:44.052Z,8.67
2023-02-06T22:23:31.422Z,8.50
2023-02-06T22:26:20.377Z,8.60
2023-02-06T22:29:09.208Z,8.83
2023-02-06T22:31:57.060Z,8.63
2023-02-06T22:34:44.622Z,8.20
2023-02-06T22:37:33.329Z,8.63
2023-02-06T22:40:20.672Z,7.87
2023-02-06T22:43:08.459Z,8.70
2023-02-06T22:45:56.049Z,8.17
2023-02-06T22:48:43.881Z,9.30
2023-02-06T22:51:31.681Z,8.83
2023-02-06T22:54:19.024Z,9.23
2023-02-06T22:57:06.978Z,8.57
2023-02-06T22:59:54.732Z,9.07
2023-02-06T23:02:42.647Z,9.60
2023-02-06T23:05:30.420Z,9.83
2023-02-06T23:08:19.245Z,10.10
2023-02-06T23:11:07.015Z,10.23
2023-02-06T23:13:58.648Z,9.07
2023-02-06T23:16:46.610Z,10.00
2023-02-06T23:19:34.384Z,9.63
2023-02-06T23:22:21.701Z,9.50
2023-02-06T23:25:10.603Z,9.80
2023-02-06T23:27:57.936Z,10.43
2023-02-06T23:30:45.872Z,10.77
2023-02-06T23:33:33.616Z,9.67
2023-02-06T23:36:22.475Z,9.87
2023-02-06T23:39:11.704Z,10.63
2023-02-06T23:41:59.585Z,12.00
2023-02-06T23:44:47.344Z,11.23
2023-02-06T23:47:35.091Z,9.77
2023-02-06T23:50:23.402Z,10.40
2023-02-06T23:53:10.803Z,10.43
2023-02-06T23:55:58.668Z,10.23
2023-02-06T23:58:46.138Z,11.10
